Time;durP1;ratioP1;P1;durP2;ratioP2;P2;SDS_P1;SDS_P2;PMS_P1;PMS_P2;Temp;Humidity;BMP_temperature;BMP_pressure;BME280_temperature;BME280_humidity;BME280_pressure;Samples;Min_cycle;Max_cycle;Signal;HPM_P1;HPM_P2
2021/07/12 00:00:51;;;;;;;8.35;5.47;;;22.20;81.80;;;;;;5018722;28;20045;-94
2021/07/12 00:03:17;;;;;;;7.32;5.35;;;22.10;81.70;;;;;;5018436;28;20050;-94
2021/07/12 00:05:42;;;;;;;7.20;5.53;;;22.10;81.80;;;;;;5020948;28;20046;-93
2021/07/12 00:08:08;;;;;;;7.50;5.43;;;22.10;82.60;;;;;;5017903;28;20057;-95
2021/07/12 00:10:36;;;;;;;9.05;5.65;;;22.00;81.80;;;;;;5018982;28;20054;-94
2021/07/12 00:13:03;;;;;;;7.45;5.53;;;22.00;81.90;;;;;;5017483;28;20128;-94
2021/07/12 00:15:30;;;;;;;6.78;5.65;;;22.00;82.00;;;;;;5016988;28;20088;-94
2021/07/12 00:17:57;;;;;;;7.43;5.35;;;22.00;82.00;;;;;;5017742;28;20057;-95
2021/07/12 00:20:23;;;;;;;6.65;5.95;;;21.90;82.10;;;;;;5017336;28;20034;-94
2021/07/12 00:22:51;;;;;;;6.55;5.63;;;21.90;82.20;;;;;;5017773;28;20049;-94
2021/07/12 00:25:18;;;;;;;7.03;5.45;;;21.90;82.20;;;;;;5018063;28;20073;-95
2021/07/12 00:27:45;;;;;;;8.50;5.50;;;21.90;82.30;;;;;;5018991;28;20077;-94
2021/07/12 00:30:16;;;;;;;6.75;5.43;;;21.90;82.40;;;;;;5018961;28;20049;-95
2021/07/12 00:32:43;;;;;;;6.18;5.38;;;21.80;82.10;;;;;;5019225;28;20116;-95
2021/07/12 00:35:11;;;;;;;6.57;5.45;;;21.80;82.10;;;;;;5019709;28;20054;-94
2021/07/12 00:37:37;;;;;;;6.68;5.50;;;21.80;82.10;;;;;;5018608;28;20053;-95
2021/07/12 00:40:06;;;;;;;6.63;5.55;;;21.80;82.40;;;;;;5019164;28;20049;-95
2021/07/12 00:42:32;;;;;;;9.23;5.50;;;21.80;82.40;;;;;;5019869;28;20061;-94
2021/07/12 00:44:58;;;;;;;5.78;5.15;;;21.70;82.50;;;;;;5018315;28;20104;-95
2021/07/12 00:47:23;;;;;;;7.60;5.30;;;21.70;82.40;;;;;;5018098;28;20054;-96
2021/07/12 00:49:49;;;;;;;7.25;5.68;;;21.70;82.80;;;;;;5019515;28;20054;-96
2021/07/12 00:52:15;;;;;;;6.93;5.28;;;21.70;82.80;;;;;;5018910;28;20045;-95
2021/07/12 00:54:41;;;;;;;6.68;5.80;;;21.60;82.60;;;;;;5018719;28;20073;-95
2021/07/12 00:57:07;;;;;;;8.15;7.05;;;21.60;82.90;;;;;;5035837;28;20049;-94
2021/07/12 00:59:35;;;;;;;7.30;5.72;;;21.60;83.10;;;;;;5037837;28;20056;-95
2021/07/12 01:02:02;;;;;;;6.97;5.40;;;21.60;83.20;;;;;;5037617;28;20124;-95
2021/07/12 01:04:30;;;;;;;7.47;6.45;;;21.50;83.10;;;;;;5037202;28;20053;-95
2021/07/12 01:06:55;;;;;;;6.00;5.28;;;21.50;83.40;;;;;;5037503;28;20050;-96
2021/07/12 01:09:21;;;;;;;6.85;5.35;;;21.50;82.90;;;;;;5036686;28;20096;-95
2021/07/12 01:12:07;;;;;;;8.52;6.30;;;21.50;82.80;;;;;;5035895;28;20080;-95
2021/07/12 01:14:48;;;;;;;7.47;5.90;;;21.40;82.30;;;;;;5036274;28;20053;-93
2021/07/12 01:17:28;;;;;;;7.30;6.03;;;21.40;82.50;;;;;;5036587;28;20072;-94
2021/07/12 01:20:22;;;;;;;8.57;6.32;;;21.40;83.00;;;;;;5032813;28;20077;-94
2021/07/12 01:23:12;;;;;;;6.90;5.68;;;21.40;82.20;;;;;;5015974;28;20070;-94
2021/07/12 01:25:54;;;;;;;7.35;6.45;;;21.30;83.00;;;;;;5015889;28;20065;-94
2021/07/12 01:28:37;;;;;;;7.80;6.00;;;21.30;82.70;;;;;;4995566;28;20108;-94
2021/07/12 01:31:41;;;;;;;12.48;10.57;;;21.30;83.20;;;;;;4997007;28;20121;-95
2021/07/12 01:34:14;;;;;;;8.73;6.05;;;21.30;83.20;;;;;;4996837;28;20061;-95
2021/07/12 01:36:51;;;;;;;7.95;6.45;;;21.20;83.60;;;;;;4996883;28;20042;-93
2021/07/12 01:39:27;;;;;;;7.30;6.13;;;21.20;83.50;;;;;;4997987;28;20049;-96
2021/07/12 01:42:12;;;;;;;7.13;6.32;;;21.20;83.20;;;;;;4997919;28;20050;-95
2021/07/12 01:44:52;;;;;;;8.65;6.90;;;21.20;83.40;;;;;;4998459;28;20056;-95
2021/07/12 01:48:02;;;;;;;7.35;6.28;;;21.20;83.00;;;;;;5013641;28;20125;-95
2021/07/12 01:50:44;;;;;;;8.55;7.22;;;21.20;82.70;;;;;;5015430;28;20260;-95
2021/07/12 01:53:28;;;;;;;8.38;7.53;;;21.20;83.60;;;;;;5020590;28;20065;-94
2021/07/12 01:56:08;;;;;;;7.80;6.85;;;21.10;83.60;;;;;;5034258;28;20052;-95
2021/07/12 01:58:48;;;;;;;8.32;7.13;;;21.10;83.40;;;;;;5034373;28;20050;-96
2021/07/12 02:01:14;;;;;;;8.55;7.50;;;21.10;83.70;;;;;;5036432;28;20406;-94
2021/07/12 02:03:41;;;;;;;8.38;7.28;;;21.10;84.20;;;;;;5036013;28;20457;-96
2021/07/12 02:06:09;;;;;;;8.57;7.47;;;21.10;83.70;;;;;;5036534;28;20072;-96
2021/07/12 02:08:45;;;;;;;9.10;8.15;;;21.10;83.80;;;;;;5038225;28;20057;-96
2021/07/12 02:11:13;;;;;;;8.57;7.57;;;21.10;84.20;;;;;;5037971;28;20387;-96
2021/07/12 02:13:40;;;;;;;9.77;8.77;;;21.10;84.00;;;;;;5036688;28;20389;-96
2021/07/12 02:16:06;;;;;;;8.70;7.80;;;21.10;84.10;;;;;;5037479;28;20053;-96
2021/07/12 02:18:34;;;;;;;8.73;7.85;;;21.00;83.90;;;;;;5036702;28;20397;-96
2021/07/12 02:21:00;;;;;;;9.20;7.75;;;21.00;84.00;;;;;;5035383;28;20492;-94
2021/07/12 02:23:27;;;;;;;9.20;8.25;;;21.00;83.70;;;;;;5027433;28;20045;-95
2021/07/12 02:25:53;;;;;;;9.82;8.82;;;21.00;83.90;;;;;;5014820;28;20041;-94
2021/07/12 02:28:20;;;;;;;9.80;8.73;;;20.90;84.00;;;;;;5014924;28;20195;-96
2021/07/12 02:30:46;;;;;;;9.80;8.75;;;21.00;84.00;;;;;;5014598;28;20061;-94
2021/07/12 02:33:14;;;;;;;9.23;8.27;;;21.00;84.00;;;;;;5014094;28;20050;-94
2021/07/12 02:35:41;;;;;;;10.40;9.18;;;20.90;84.10;;;;;;5019668;28;20046;-93
2021/07/12 02:38:09;;;;;;;10.80;9.43;;;20.90;84.10;;;;;;5019490;28;20054;-94
2021/07/12 02:40:35;;;;;;;10.45;9.30;;;20.90;84.50;;;;;;5019999;28;20049;-95
2021/07/12 02:43:02;;;;;;;10.50;9.40;;;20.90;84.80;;;;;;5025988;28;20045;-94
2021/07/12 02:45:30;;;;;;;10.30;9.10;;;20.90;84.90;;;;;;5041061;28;20147;-95
2021/07/12 02:47:56;;;;;;;10.13;9.05;;;20.90;84.70;;;;;;5041473;28;20060;-95
2021/07/12 02:50:22;;;;;;;10.68;9.00;;;20.90;84.60;;;;;;5040935;28;20041;-94
2021/07/12 02:53:02;;;;;;;10.23;9.13;;;20.80;84.70;;;;;;5038496;28;20120;-95
2021/07/12 02:55:27;;;;;;;10.07;9.07;;;20.80;84.30;;;;;;5021068;28;20046;-94
2021/07/12 02:57:53;;;;;;;11.82;9.05;;;20.80;84.70;;;;;;5021540;28;20553;-96
2021/07/12 03:00:19;;;;;;;11.05;9.95;;;20.80;84.60;;;;;;5023078;28;20045;-95
2021/07/12 03:02:46;;;;;;;10.15;9.05;;;20.80;84.70;;;;;;5026483;28;20049;-95
2021/07/12 03:05:13;;;;;;;11.70;8.93;;;20.70;84.60;;;;;;5040501;28;20048;-95
2021/07/12 03:08:02;;;;;;;9.75;8.63;;;20.70;84.60;;;;;;5040572;28;20041;-95
2021/07/12 03:10:30;;;;;;;9.85;8.77;;;20.70;83.80;;;;;;5042964;28;20129;-95
2021/07/12 03:13:03;;;;;;;10.40;8.88;;;20.70;84.70;;;;;;5040035;28;20045;-94
2021/07/12 03:15:38;;;;;;;10.35;8.25;;;20.70;84.60;;;;;;5038917;28;20057;-93
2021/07/12 03:18:06;;;;;;;9.93;8.73;;;20.60;84.30;;;;;;5039549;28;20049;-93
2021/07/12 03:20:34;;;;;;;11.68;9.45;;;20.60;84.50;;;;;;5038487;28;20045;-96
2021/07/12 03:23:02;;;;;;;9.80;8.80;;;20.60;85.50;;;;;;5038510;28;20121;-94
2021/07/12 03:25:33;;;;;;;10.75;9.55;;;20.60;84.80;;;;;;5040788;28;20137;-95
2021/07/12 03:28:00;;;;;;;10.55;9.38;;;20.60;84.90;;;;;;5040373;28;20049;-95
2021/07/12 03:30:29;;;;;;;10.60;9.60;;;20.60;84.80;;;;;;5039672;28;20404;-95
2021/07/12 03:32:55;;;;;;;10.20;8.75;;;20.60;85.00;;;;;;5038985;28;20408;-95
2021/07/12 03:35:26;;;;;;;9.48;8.48;;;20.50;84.80;;;;;;5037694;28;20045;-95
2021/07/12 03:37:52;;;;;;;9.98;8.98;;;20.50;84.80;;;;;;5037279;28;20076;-94
2021/07/12 03:40:18;;;;;;;11.10;9.25;;;20.50;84.70;;;;;;5038884;28;20046;-94
2021/07/12 03:42:45;;;;;;;10.02;9.00;;;20.50;84.90;;;;;;5039685;28;20050;-95
2021/07/12 03:45:11;;;;;;;11.05;9.85;;;20.50;85.00;;;;;;5041287;28;20125;-96
2021/07/12 03:47:39;;;;;;;10.25;9.23;;;20.50;85.00;;;;;;5040348;28;20046;-96
2021/07/12 03:50:09;;;;;;;10.13;9.10;;;20.50;84.80;;;;;;5040183;28;20053;-96
2021/07/12 03:52:46;;;;;;;10.63;9.50;;;20.50;85.10;;;;;;5038467;28;20045;-95
2021/07/12 03:55:14;;;;;;;9.88;8.88;;;20.40;85.00;;;;;;5038669;28;20121;-95
2021/07/12 03:57:41;;;;;;;9.90;8.90;;;20.40;85.00;;;;;;5039163;28;20132;-95
2021/07/12 04:00:10;;;;;;;11.68;8.88;;;20.40;84.90;;;;;;5038586;28;20625;-95
2021/07/12 04:02:37;;;;;;;9.30;8.25;;;20.40;85.10;;;;;;5038564;28;20067;-93
2021/07/12 04:05:06;;;;;;;10.20;9.20;;;20.40;84.90;;;;;;5039199;28;20045;-96
2021/07/12 04:07:32;;;;;;;9.75;8.75;;;20.40;86.10;;;;;;5038169;28;20512;-94
2021/07/12 04:09:58;;;;;;;9.63;8.63;;;20.40;85.10;;;;;;5037671;28;20584;-95
2021/07/12 04:12:24;;;;;;;9.45;8.48;;;20.40;85.10;;;;;;5038585;28;20081;-94
2021/07/12 04:14:54;;;;;;;9.43;8.50;;;20.30;84.90;;;;;;5039083;28;20132;-95
2021/07/12 04:17:20;;;;;;;9.98;8.93;;;20.30;85.00;;;;;;5038359;28;20056;-95
2021/07/12 04:19:47;;;;;;;9.23;7.93;;;20.30;85.30;;;;;;5038284;28;20057;-95
2021/07/12 04:22:14;;;;;;;9.35;8.45;;;20.30;85.10;;;;;;5029477;28;20046;-95
2021/07/12 04:24:40;;;;;;;10.18;8.23;;;20.30;84.60;;;;;;5018747;28;20057;-95
2021/07/12 04:27:06;;;;;;;9.35;8.20;;;20.30;84.60;;;;;;5018478;28;20116;-93
2021/07/12 04:29:32;;;;;;;9.07;8.18;;;20.20;84.70;;;;;;5017506;28;20049;-95
2021/07/12 04:32:00;;;;;;;8.77;7.88;;;20.20;84.90;;;;;;5023348;28;20579;-95
2021/07/12 04:34:27;;;;;;;9.20;8.15;;;20.20;84.90;;;;;;5037672;28;20048;-94
2021/07/12 04:36:53;;;;;;;9.00;8.05;;;20.30;85.00;;;;;;5038051;28;20046;-94
2021/07/12 04:39:20;;;;;;;9.65;8.65;;;20.20;84.70;;;;;;5036780;28;20049;-93
2021/07/12 04:41:46;;;;;;;10.45;8.98;;;20.30;85.20;;;;;;5035142;28;20045;-94
2021/07/12 04:44:12;;;;;;;8.98;8.07;;;20.20;85.10;;;;;;5036772;28;20103;-94
2021/07/12 04:46:38;;;;;;;11.23;8.80;;;20.20;85.00;;;;;;5035592;28;20045;-92
2021/07/12 04:49:08;;;;;;;9.52;8.35;;;20.20;84.80;;;;;;5036198;28;20406;-95
2021/07/12 04:51:33;;;;;;;9.73;8.73;;;20.20;84.90;;;;;;5037762;28;20061;-94
2021/07/12 04:53:59;;;;;;;10.40;8.50;;;20.20;84.70;;;;;;5037709;28;20041;-95
2021/07/12 04:56:25;;;;;;;9.93;8.93;;;20.20;84.70;;;;;;5037479;28;20545;-94
2021/07/12 04:58:52;;;;;;;9.48;8.57;;;20.20;85.00;;;;;;5037003;28;20068;-94
2021/07/12 05:01:18;;;;;;;10.55;8.95;;;20.20;84.90;;;;;;5034911;28;20125;-93
2021/07/12 05:03:44;;;;;;;9.75;8.75;;;20.20;85.20;;;;;;5037462;28;20490;-94
2021/07/12 05:06:10;;;;;;;10.55;9.45;;;20.20;85.40;;;;;;5037210;28;20107;-94
2021/07/12 05:08:38;;;;;;;9.80;8.80;;;20.20;85.50;;;;;;5039524;28;20140;-95
2021/07/12 05:11:04;;;;;;;10.25;9.15;;;20.20;84.90;;;;;;5028969;28;20074;-94
2021/07/12 05:13:31;;;;;;;9.55;8.60;;;20.20;84.40;;;;;;5018265;28;20125;-95
2021/07/12 05:15:57;;;;;;;9.55;8.40;;;20.20;85.00;;;;;;5019543;28;20096;-95
2021/07/12 05:18:23;;;;;;;9.25;8.35;;;20.20;85.00;;;;;;5017914;28;20050;-94
2021/07/12 05:20:51;;;;;;;9.75;8.65;;;20.20;85.20;;;;;;5023511;28;20504;-94
2021/07/12 05:23:17;;;;;;;10.35;8.40;;;20.20;85.10;;;;;;5026168;28;20125;-94
2021/07/12 05:25:43;;;;;;;9.57;8.68;;;20.30;85.00;;;;;;5027131;28;20500;-95
2021/07/12 05:28:08;;;;;;;8.82;7.93;;;20.20;85.60;;;;;;5038218;28;20103;-94
2021/07/12 05:30:34;;;;;;;9.63;8.63;;;20.20;85.40;;;;;;5038016;28;20049;-93
2021/07/12 05:33:00;;;;;;;8.30;7.43;;;20.20;85.40;;;;;;5019521;28;20046;-95
2021/07/12 05:35:28;;;;;;;8.80;7.90;;;20.20;84.60;;;;;;5018164;28;20129;-96
2021/07/12 05:37:53;;;;;;;9.10;8.18;;;20.20;85.00;;;;;;5019715;28;20080;-94
2021/07/12 05:40:20;;;;;;;8.65;7.75;;;20.20;85.20;;;;;;5025128;28;20057;-94
2021/07/12 05:42:45;;;;;;;8.80;7.93;;;20.20;85.20;;;;;;5033295;28;20050;-94
2021/07/12 05:45:11;;;;;;;8.38;7.47;;;20.20;85.30;;;;;;5015764;28;20046;-95
2021/07/12 05:47:37;;;;;;;8.73;7.82;;;20.20;85.20;;;;;;5018040;28;20089;-95
2021/07/12 05:50:07;;;;;;;9.15;8.10;;;20.10;85.50;;;;;;5016344;28;20046;-82
2021/07/12 05:52:39;;;;;;;8.30;7.50;;;20.20;85.70;;;;;;5013121;28;20053;-83
2021/07/12 05:55:06;;;;;;;7.93;7.13;;;20.20;85.60;;;;;;5013813;28;20048;-83
2021/07/12 05:57:32;;;;;;;8.30;7.50;;;20.20;85.80;;;;;;5012997;28;20045;-82
2021/07/12 05:59:57;;;;;;;8.80;7.47;;;20.20;85.90;;;;;;5012799;28;20062;-84
2021/07/12 06:02:23;;;;;;;7.90;7.10;;;20.20;85.70;;;;;;5042076;28;20053;-92
2021/07/12 06:04:48;;;;;;;11.57;10.48;;;20.20;85.70;;;;;;5042815;28;20412;-93
2021/07/12 06:07:14;;;;;;;8.52;6.75;;;20.20;86.50;;;;;;5024076;28;20045;-90
2021/07/12 06:09:40;;;;;;;9.40;7.05;;;20.20;86.00;;;;;;5013016;28;20054;-88
2021/07/12 06:12:06;;;;;;;11.98;10.77;;;20.20;85.70;;;;;;5012889;28;20050;-88
2021/07/12 06:14:32;;;;;;;7.38;6.68;;;20.20;87.20;;;;;;5013111;28;20100;-89
2021/07/12 06:16:58;;;;;;;10.00;8.98;;;20.20;86.00;;;;;;5008824;28;20053;-88
2021/07/12 06:19:23;;;;;;;7.65;6.88;;;20.20;86.10;;;;;;5014604;28;20554;-90
2021/07/12 06:21:49;;;;;;;8.57;7.28;;;20.30;85.60;;;;;;5014512;28;20045;-90
2021/07/12 06:24:15;;;;;;;8.40;7.25;;;20.20;85.50;;;;;;5014293;28;20489;-90
2021/07/12 06:26:40;;;;;;;7.72;6.93;;;20.30;85.50;;;;;;5014099;28;20054;-89
2021/07/12 06:29:06;;;;;;;8.32;7.45;;;20.30;85.40;;;;;;5013964;28;20072;-89
2021/07/12 06:31:32;;;;;;;8.10;7.30;;;20.30;86.50;;;;;;5020904;28;20480;-89
2021/07/12 06:33:57;;;;;;;8.48;7.07;;;20.30;85.50;;;;;;5033664;28;20616;-89
2021/07/12 06:36:23;;;;;;;7.93;7.13;;;20.30;85.30;;;;;;5033918;28;20145;-90
2021/07/12 06:38:49;;;;;;;7.60;6.63;;;20.30;85.30;;;;;;5032942;28;20060;-88
2021/07/12 06:41:15;;;;;;;8.05;7.25;;;20.30;85.30;;;;;;5019106;28;20552;-89
2021/07/12 06:43:41;;;;;;;7.43;6.63;;;20.40;85.30;;;;;;5023088;28;20058;-89
2021/07/12 06:46:07;;;;;;;8.30;7.43;;;20.40;86.00;;;;;;5021421;28;20104;-90
2021/07/12 06:48:32;;;;;;;8.15;6.68;;;20.40;85.20;;;;;;5009231;28;20046;-89
2021/07/12 06:50:58;;;;;;;7.57;6.80;;;20.40;85.30;;;;;;5018899;28;20042;-88
2021/07/12 06:53:23;;;;;;;7.13;6.43;;;20.50;85.20;;;;;;5016043;28;20053;-89
2021/07/12 06:55:49;;;;;;;8.30;7.15;;;20.40;85.10;;;;;;5013484;28;20433;-89
2021/07/12 06:58:15;;;;;;;8.10;7.30;;;20.50;85.20;;;;;;5013555;28;20065;-88
2021/07/12 07:00:40;;;;;;;11.13;9.90;;;20.50;85.20;;;;;;5014772;28;20053;-89
2021/07/12 07:03:08;;;;;;;10.52;9.52;;;20.50;86.50;;;;;;5014345;28;20054;-88
2021/07/12 07:05:33;;;;;;;9.50;7.60;;;20.50;86.70;;;;;;5014582;28;20049;-89
2021/07/12 07:08:02;;;;;;;8.95;7.97;;;20.60;86.40;;;;;;5015126;28;20077;-88
2021/07/12 07:10:28;;;;;;;10.57;9.52;;;20.60;86.20;;;;;;5014092;28;20057;-88
2021/07/12 07:12:53;;;;;;;9.45;8.55;;;20.60;86.60;;;;;;5010886;28;20046;-88
2021/07/12 07:15:19;;;;;;;16.33;14.63;;;20.60;86.50;;;;;;5017522;28;20119;-88
2021/07/12 07:17:45;;;;;;;10.55;9.45;;;20.70;89.40;;;;;;5008562;28;20046;-88
2021/07/12 07:20:12;;;;;;;13.10;11.88;;;20.70;88.00;;;;;;5013829;28;20050;-88
2021/07/12 07:22:38;;;;;;;12.35;11.15;;;20.70;88.40;;;;;;5014678;28;20073;-88
2021/07/12 07:25:05;;;;;;;11.77;10.65;;;20.80;88.60;;;;;;5016383;28;20494;-88
2021/07/12 07:27:32;;;;;;;12.57;11.13;;;20.80;88.80;;;;;;5015993;28;20490;-88
2021/07/12 07:29:58;;;;;;;10.90;9.80;;;20.80;88.80;;;;;;5016274;28;20088;-88
2021/07/12 07:32:24;;;;;;;11.98;10.77;;;20.90;88.50;;;;;;5017057;28;20050;-88
2021/07/12 07:34:50;;;;;;;12.05;10.88;;;20.90;88.70;;;;;;5016165;28;20073;-88
2021/07/12 07:37:16;;;;;;;10.50;9.50;;;20.90;88.60;;;;;;5013251;28;20417;-88
2021/07/12 07:39:42;;;;;;;11.07;9.98;;;21.00;88.40;;;;;;5016723;28;20077;-88
2021/07/12 07:42:08;;;;;;;12.35;11.15;;;21.00;87.90;;;;;;5015837;28;20049;-88
2021/07/12 07:44:33;;;;;;;16.25;14.65;;;21.00;88.30;;;;;;5016808;28;20133;-88
2021/07/12 07:46:59;;;;;;;14.45;12.93;;;21.00;89.70;;;;;;5016741;28;20053;-87
2021/07/12 07:49:27;;;;;;;13.35;12.05;;;21.10;90.00;;;;;;5022301;28;20049;-87
2021/07/12 07:51:52;;;;;;;12.88;11.65;;;21.10;90.00;;;;;;5033487;28;20099;-89
2021/07/12 07:54:18;;;;;;;16.00;14.38;;;21.10;89.90;;;;;;5018438;28;20054;-89
2021/07/12 07:56:44;;;;;;;14.35;12.95;;;21.10;90.00;;;;;;5015212;28;20129;-85
2021/07/12 07:59:10;;;;;;;16.15;14.65;;;21.10;90.10;;;;;;5016016;28;20472;-88
2021/07/12 08:01:36;;;;;;;11.25;10.05;;;21.20;90.70;;;;;;5027023;28;20049;-87
2021/07/12 08:04:02;;;;;;;16.27;14.68;;;21.20;89.40;;;;;;5034174;28;20095;-87
2021/07/12 08:06:28;;;;;;;13.75;11.40;;;21.30;90.40;;;;;;5020264;28;20060;-87
2021/07/12 08:08:54;;;;;;;14.68;13.18;;;21.30;89.80;;;;;;5019339;28;20053;-87
2021/07/12 08:11:19;;;;;;;11.13;10.10;;;21.30;89.90;;;;;;5018447;28;20139;-87
2021/07/12 08:13:45;;;;;;;14.63;12.15;;;21.40;89.00;;;;;;5024544;28;20501;-87
2021/07/12 08:16:11;;;;;;;15.75;13.82;;;21.40;89.40;;;;;;5020127;28;20056;-87
2021/07/12 08:18:37;;;;;;;14.38;12.95;;;21.40;89.80;;;;;;5025006;28;20045;-87
2021/07/12 08:21:04;;;;;;;14.77;13.02;;;21.40;89.80;;;;;;5027241;28;20057;-87
2021/07/12 08:23:29;;;;;;;11.43;10.32;;;21.50;90.30;;;;;;5013227;28;20050;-85
2021/07/12 08:25:56;;;;;;;15.75;14.15;;;21.50;89.20;;;;;;5014572;28;20398;-87
2021/07/12 08:28:25;;;;;;;16.60;15.00;;;21.50;90.10;;;;;;5012842;28;20072;-86
2021/07/12 08:30:52;;;;;;;10.98;9.88;;;21.50;90.00;;;;;;5012661;28;20401;-87
2021/07/12 08:33:18;;;;;;;15.98;14.20;;;21.60;88.70;;;;;;5016919;28;20045;-88
2021/07/12 08:35:44;;;;;;;11.73;10.55;;;21.60;89.20;;;;;;5015560;28;20083;-87
2021/07/12 08:38:10;;;;;;;9.23;8.32;;;21.70;88.60;;;;;;5015139;28;20436;-88
2021/07/12 08:40:35;;;;;;;9.88;8.88;;;21.70;87.50;;;;;;5024691;28;20512;-88
2021/07/12 08:43:02;;;;;;;11.05;9.68;;;21.70;86.80;;;;;;5035244;28;20493;-89
2021/07/12 08:45:28;;;;;;;10.35;9.27;;;21.80;87.40;;;;;;5031723;28;20041;-87
2021/07/12 08:47:54;;;;;;;9.35;8.43;;;21.80;86.80;;;;;;5021886;28;20504;-86
2021/07/12 08:50:22;;;;;;;9.55;8.55;;;21.90;86.10;;;;;;5022922;28;20140;-86
2021/07/12 08:52:50;;;;;;;12.75;11.43;;;22.00;85.80;;;;;;5034531;28;20037;-86
2021/07/12 08:55:16;;;;;;;12.23;10.18;;;22.10;86.50;;;;;;5035348;28;20156;-87
2021/07/12 08:57:59;;;;;;;14.98;13.48;;;22.10;85.90;;;;;;5033214;28;20041;-86
2021/07/12 09:00:47;;;;;;;13.85;12.40;;;22.20;85.60;;;;;;5015319;28;20454;-90
2021/07/12 09:03:20;;;;;;;11.02;9.93;;;22.20;85.80;;;;;;5015661;28;20085;-89
2021/07/12 09:05:56;;;;;;;;;;;22.30;85.60;;;;;;5014578;28;20046;-89
2021/07/12 09:08:51;;;;;;;12.88;11.57;;;22.30;85.50;;;;;;5014724;28;19921;-88
2021/07/12 09:11:36;;;;;;;12.98;11.13;;;22.40;85.50;;;;;;5014618;28;20053;-90
2021/07/12 09:14:12;;;;;;;9.85;8.85;;;22.50;86.00;;;;;;5013803;28;20481;-89
2021/07/12 09:16:47;;;;;;;10.95;9.20;;;22.50;85.40;;;;;;5016135;28;20405;-87
2021/07/12 09:19:21;;;;;;;10.40;9.40;;;22.70;84.70;;;;;;5014436;28;20433;-88
2021/07/12 09:22:08;;;;;;;11.48;9.95;;;22.70;84.40;;;;;;5028811;28;20076;-88
2021/07/12 09:24:51;;;;;;;10.93;9.38;;;22.80;84.70;;;;;;5032900;28;20444;-88
2021/07/12 09:27:24;;;;;;;12.35;10.05;;;22.90;84.60;;;;;;5033701;28;20069;-88
2021/07/12 09:29:53;;;;;;;;;;;23.00;84.70;;;;;;5032832;28;20489;-87
2021/07/12 09:32:24;;;;;;;10.88;9.63;;;23.00;84.70;;;;;;5000892;28;19932;-88
2021/07/12 09:34:55;;;;;;;10.45;9.45;;;23.00;84.10;;;;;;5014212;28;20064;-87
2021/07/12 09:37:21;;;;;;;10.70;9.60;;;23.10;83.60;;;;;;5025590;28;20046;-88
2021/07/12 09:39:48;;;;;;;9.90;8.30;;;23.30;83.80;;;;;;5027653;28;20125;-89
2021/07/12 09:42:21;;;;;;;9.55;8.25;;;23.30;83.50;;;;;;5031549;28;20053;-89
2021/07/12 09:44:51;;;;;;;8.18;7.38;;;23.40;83.00;;;;;;5032752;28;20049;-87
2021/07/12 09:47:23;;;;;;;10.45;8.65;;;23.40;82.60;;;;;;5034924;28;20540;-90
2021/07/12 09:49:59;;;;;;;8.95;7.65;;;23.40;82.10;;;;;;5032319;28;20056;-89
2021/07/12 09:52:25;;;;;;;9.73;7.40;;;23.50;82.20;;;;;;5034077;28;20046;-91
2021/07/12 09:54:52;;;;;;;10.75;8.90;;;23.60;82.30;;;;;;5031779;28;20045;-89
2021/07/12 09:57:23;;;;;;;8.73;7.82;;;23.60;81.90;;;;;;5019894;28;20103;-89
2021/07/12 10:00:05;;;;;;;9.15;8.20;;;23.70;81.80;;;;;;5026517;28;20481;-91
2021/07/12 10:02:33;;;;;;;9.18;8.20;;;23.70;81.90;;;;;;5013509;28;20060;-89
2021/07/12 10:05:10;;;;;;;8.43;6.85;;;23.70;81.90;;;;;;5013646;28;20096;-89
2021/07/12 10:07:36;;;;;;;7.63;6.72;;;23.80;81.80;;;;;;4994133;28;20061;-89
2021/07/12 10:10:05;;;;;;;8.45;7.38;;;23.80;81.90;;;;;;4993737;28;20422;-91
2021/07/12 10:12:32;;;;;;;9.55;8.07;;;23.80;81.20;;;;;;5016984;28;20037;-80
2021/07/12 10:14:57;;;;;;;10.13;8.20;;;23.90;80.40;;;;;;5032101;28;20096;-80
2021/07/12 10:17:24;;;;;;;8.48;7.10;;;24.00;80.20;;;;;;5026825;28;20064;-91
2021/07/12 10:19:49;;;;;;;10.18;8.63;;;24.00;80.80;;;;;;5010962;28;20046;-89
2021/07/12 10:22:16;;;;;;;9.60;8.23;;;24.00;80.20;;;;;;5011347;28;20053;-87
2021/07/12 10:24:50;;;;;;;10.57;8.30;;;24.00;81.10;;;;;;5012728;28;20553;-88
2021/07/12 10:27:25;;;;;;;8.27;6.75;;;24.10;80.20;;;;;;5012352;28;20058;-88
2021/07/12 10:29:53;;;;;;;9.80;8.55;;;24.10;80.80;;;;;;5012742;28;20081;-89
2021/07/12 10:32:22;;;;;;;9.57;8.55;;;24.20;80.50;;;;;;5014936;28;20612;-87
2021/07/12 10:34:55;;;;;;;10.82;8.52;;;24.20;80.30;;;;;;5009624;28;20136;-88
2021/07/12 10:37:32;;;;;;;11.55;9.95;;;24.30;80.00;;;;;;5012923;28;20046;-93
2021/07/12 10:39:59;;;;;;;10.32;9.02;;;24.30;79.20;;;;;;5020473;28;20045;-94
2021/07/12 10:42:46;;;;;;;11.40;9.05;;;24.30;79.20;;;;;;5025019;28;20061;-93
2021/07/12 10:45:16;;;;;;;11.70;9.27;;;24.30;79.70;;;;;;5019195;28;20490;-94
2021/07/12 10:47:50;;;;;;;10.10;8.13;;;24.40;79.10;;;;;;5015142;28;20129;-93
2021/07/12 10:50:39;;;;;;;8.60;7.70;;;24.50;79.50;;;;;;5014726;28;20097;-94
2021/07/12 10:53:14;;;;;;;10.30;8.52;;;24.50;79.80;;;;;;5014019;28;20509;-90
2021/07/12 10:55:41;;;;;;;9.32;8.38;;;24.60;80.00;;;;;;5016971;28;20053;-92
2021/07/12 10:58:19;;;;;;;10.85;8.82;;;24.60;80.00;;;;;;5031275;28;20129;-92
2021/07/12 11:00:46;;;;;;;12.45;10.80;;;24.70;79.90;;;;;;5018006;28;20501;-89
2021/07/12 11:03:41;;;;;;;12.35;10.43;;;24.70;79.20;;;;;;5018018;28;20046;-90
2021/07/12 11:06:09;;;;;;;10.63;9.52;;;24.80;79.30;;;;;;5009585;28;20113;-90
2021/07/12 11:08:49;;;;;;;11.95;10.60;;;24.80;79.50;;;;;;5021530;28;20049;-89
2021/07/12 11:11:20;;;;;;;10.45;8.35;;;24.90;79.50;;;;;;5035233;28;20049;-89
2021/07/12 11:13:50;;;;;;;11.32;9.48;;;24.90;79.80;;;;;;5034212;28;20080;-89
2021/07/12 11:16:24;;;;;;;14.45;12.95;;;25.00;79.80;;;;;;5018704;28;20517;-88
2021/07/12 11:18:52;;;;;;;9.45;8.32;;;25.00;77.30;;;;;;5013289;28;20401;-89
2021/07/12 11:21:33;;;;;;;13.52;11.65;;;25.00;78.50;;;;;;5017390;28;20057;-88
2021/07/12 11:24:22;;;;;;;9.85;8.73;;;25.00;78.80;;;;;;5015198;28;20053;-91
2021/07/12 11:26:53;;;;;;;10.73;9.65;;;25.00;79.20;;;;;;5015363;28;20088;-89
2021/07/12 11:29:34;;;;;;;13.07;11.85;;;25.10;79.50;;;;;;5016543;28;20057;-88
2021/07/12 11:32:02;;;;;;;11.63;10.43;;;25.10;79.10;;;;;;5015583;28;20486;-88
2021/07/12 11:34:39;;;;;;;10.90;9.80;;;25.10;79.00;;;;;;5015477;28;20046;-90
2021/07/12 11:37:10;;;;;;;10.10;9.05;;;25.20;79.20;;;;;;5013335;28;20042;-89
2021/07/12 11:39:40;;;;;;;11.48;9.45;;;25.20;79.40;;;;;;5018073;28;20050;-91
2021/07/12 11:42:27;;;;;;;9.80;8.80;;;25.30;79.00;;;;;;5016108;28;20058;-90
2021/07/12 11:44:56;;;;;;;9.95;8.55;;;25.30;79.10;;;;;;5016693;28;20081;-91
2021/07/12 11:47:31;;;;;;;9.85;8.85;;;25.30;79.50;;;;;;5016116;28;20096;-91
2021/07/12 11:50:04;;;;;;;11.38;8.68;;;25.30;79.50;;;;;;5017029;28;20171;-89
2021/07/12 11:52:30;;;;;;;10.98;8.70;;;25.40;79.70;;;;;;5017030;28;20104;-89
2021/07/12 11:55:12;;;;;;;9.38;8.38;;;25.40;79.70;;;;;;5016102;28;20052;-92
2021/07/12 11:57:40;;;;;;;9.98;8.43;;;25.50;79.50;;;;;;5017413;28;20481;-87
2021/07/12 12:00:11;;;;;;;10.25;8.45;;;25.50;79.20;;;;;;5017131;28;20045;-91
2021/07/12 12:02:39;;;;;;;8.93;7.82;;;25.50;78.10;;;;;;5011997;28;20078;-91
2021/07/12 12:05:13;;;;;;;9.32;8.43;;;25.50;78.30;;;;;;5022389;28;20041;-88
2021/07/12 12:07:47;;;;;;;9.57;7.93;;;25.50;77.70;;;;;;5029807;28;20105;-89
2021/07/12 12:10:20;;;;;;;9.30;7.93;;;25.60;78.30;;;;;;5014267;28;20050;-91
2021/07/12 12:12:58;;;;;;;9.48;7.90;;;25.60;78.70;;;;;;5019210;28;20107;-90
2021/07/12 12:15:29;;;;;;;8.98;7.93;;;25.60;77.50;;;;;;5016204;28;20127;-89
2021/07/12 12:17:56;;;;;;;9.27;8.10;;;25.60;78.00;;;;;;5012704;28;20054;-87
2021/07/12 12:20:35;;;;;;;8.10;7.30;;;25.60;77.40;;;;;;5010983;28;20108;-90
2021/07/12 12:23:03;;;;;;;8.98;7.20;;;25.60;77.70;;;;;;5012762;28;20107;-89
2021/07/12 12:25:35;;;;;;;9.77;7.45;;;25.70;78.20;;;;;;5014419;28;20046;-89
2021/07/12 12:28:03;;;;;;;9.13;7.50;;;25.70;78.00;;;;;;5014438;28;20046;-88
2021/07/12 12:30:29;;;;;;;9.35;8.35;;;25.70;78.40;;;;;;5014476;28;20046;-88
2021/07/12 12:32:59;;;;;;;9.68;7.32;;;25.70;77.50;;;;;;5012698;28;20042;-87
2021/07/12 12:35:27;;;;;;;8.55;7.65;;;25.80;78.00;;;;;;5013969;28;20136;-86
2021/07/12 12:37:54;;;;;;;8.25;7.35;;;25.80;78.10;;;;;;5015679;28;20121;-87
2021/07/12 12:40:24;;;;;;;7.68;6.88;;;25.80;78.10;;;;;;5015027;28;20053;-87
2021/07/12 12:42:52;;;;;;;8.25;7.45;;;25.80;78.40;;;;;;5015127;28;20041;-87
2021/07/12 12:45:27;;;;;;;7.85;6.72;;;25.80;77.60;;;;;;5015000;28;20095;-87
2021/07/12 12:47:55;;;;;;;8.98;7.53;;;25.80;78.30;;;;;;5015766;28;20058;-89
2021/07/12 12:50:21;;;;;;;8.52;7.45;;;25.90;77.90;;;;;;5015489;28;20057;-87
2021/07/12 12:52:47;;;;;;;9.13;7.03;;;25.90;78.10;;;;;;5014407;28;20053;-87
2021/07/12 12:55:15;;;;;;;8.25;7.20;;;26.00;78.30;;;;;;5015524;28;20046;-89